Tendoy, ID

6:50 PM MDT on July 24, 2017 (GMT -0600)
Challis | | Change Station
Active Advisory: Fire Weather Warning

Elev 5072 ft 44.52 °N, 114.22 °W | Updated 55 minutes ago

Partly Cloudy
Partly Cloudy
86 °F
Feels Like 86 °F
N
7
Wind Variable Wind from North

Today
High -- | Low -- °F
--% Chance of Precip.
Yesterday
High -- | Low -- °F
Precip. -- in
Pressure 29.79 in
Visibility 10.0 miles
Clouds Scattered Clouds 12000 ft
Dew Point 47 °F
Humidity 26%
Rainfall 0.00 in
Snow Depth Not available.
6:11 AM 9:09 PM
Waxing Crescent, 4% visible
METAR KLLJ 242355Z AUTO 01006KT 10SM SCT120 30/08 A2999 RMK AO2 SLP088 60000 T03000083 10317 20233 58001
Pressure 29.79 in
Visibility 10.0 miles
Clouds Scattered Clouds 12000 ft
Dew Point 47 °F
Humidity 26%
Rainfall 0.00 in
Snow Depth Not available.
6:11 AM 9:09 PM
Waxing Crescent, 4% visible
METAR KLLJ 242355Z AUTO 01006KT 10SM SCT120 30/08 A2999 RMK AO2 SLP088 60000 T03000083 10317 20233 58001

Get Your Daily Forecast Email!

Thanks for signing up!

Be on the lookout for a verification email in your inbox.

You'll start receiving severe weather alerts in your inbox..

×

10-Day Weather Forecast

Almanac

Astronomy

Jul. 24, 2017 Rise Set
Actual Time
Civil Twilight
Nautical Twilight
Astronomical Twilight
Moon
Length of Visible Light
Length of Day
Tomorrow will be .
, % of the Moon is Illuminated

Today's Extremes

State Highs State Lows

Community

WunderPhotos

Category 6

Welcome to Category 6. This is the collective home for Weather Underground's featured writeups by Dr. Jeff Masters (right), Bob Henson (left), Chris Burt, and other regular contributors.

Nearby

Air Quality

  Air Quality AQ Index Pollutant
Not available.

Snow Depth

Station Depth Elevation

Earthquake Activity

City Distance Mag. Time & Date
Minimum magnitude displayed is 2.5.

Coastal Water Temperatures

Place Temperature

Stations

Nearby Weather Stations

Station Location Temp. Windchill Dew Point Humidity Wind Precip. Elev Updated Type
                   

Watches & Warnings

Fire Weather Warning
Issued: 1:42 PM MDT Jul. 24, 2017 – National Weather Service

... Red flag warning remains in effect until 9 PM MDT this evening
for scattered thunderstorms and gusty outflow winds for Idaho
fire weather zones 422, 425 427 and 476...

* affected area... all elevations of fire weather zones 422, 425,
427 and 476.

* Wind... mainly west 5 to 10 mph. Thunderstorm outflow winds over
40 mph possible.

* Thunderstorms... potentially scattered in coverage through this
evening.

* Impacts... any fires that develop will likely spread rapidly.
Outdoor burning is not recommended.

Precautionary/preparedness actions...

A red flag warning means that critical fire weather conditions
are either occurring now, or will shortly. Fires may experience
rapid rates of growth. Please advise the appropriate officials or
fire crews in the field of the red flag warning for portions of
southeast Idaho.